March ARB, California
Current Conditions -  °F | °C
As of 10:58 AM on Tuesday 21 Oct 2014 (Local Time) from KRIV Reporting Station
Clear Clear  
Wind Chill: 65°   Ceiling: Unl
Heat Index: 65°   Visibility: 10mi
Dew Point: 65°   Wind: 2mph
Humidity: 100%   Direction: NA
Pressure: 29.94"   Gusts: NA
Location:  33.8951°N, 117.268°W
Report Text: KRIV 211758Z AUTO VRB02KT 10SM CLR 18/18 A2994 RMK AO2 SLP132 T01810181 10181 20143 50000
Loading
Personal Weather Stations






























Interactive Weather Map
Tropical Storm Tracking
New forecast layout! Learn more

10-Day Weather Forecast

Advertisements
Track Severe Weather on mobile